createdAt,value
2022-12-03T00:02:08.122Z,24.50
2022-12-03T00:04:55.493Z,21.57
2022-12-03T00:07:42.684Z,22.03
2022-12-03T00:10:29.707Z,22.43
2022-12-03T00:13:16.611Z,24.90
2022-12-03T00:16:03.797Z,23.80
2022-12-03T00:18:50.729Z,25.00
2022-12-03T00:21:37.730Z,22.33
2022-12-03T00:24:24.660Z,25.23
2022-12-03T00:27:11.609Z,22.50
2022-12-03T00:29:58.518Z,23.07
2022-12-03T00:32:45.559Z,23.67
2022-12-03T00:35:32.581Z,22.50
2022-12-03T00:38:19.590Z,21.37
2022-12-03T00:41:06.715Z,26.70
2022-12-03T00:43:57.410Z,25.63
2022-12-03T00:46:44.435Z,28.07
2022-12-03T00:49:31.485Z,23.90
2022-12-03T00:52:18.439Z,22.77
2022-12-03T00:55:05.816Z,26.63
2022-12-03T00:57:52.777Z,23.70
2022-12-03T01:00:39.705Z,26.40
2022-12-03T01:03:26.849Z,25.63
2022-12-03T01:06:13.858Z,26.37
2022-12-03T01:09:00.894Z,30.70
2022-12-03T01:11:47.848Z,27.00
2022-12-03T01:14:34.801Z,26.23
2022-12-03T01:17:21.761Z,27.00
2022-12-03T01:20:10.232Z,25.77
2022-12-03T01:22:57.245Z,24.97
2022-12-03T01:25:44.241Z,27.20
2022-12-03T01:28:31.543Z,30.57
2022-12-03T01:31:37.962Z,30.43
2022-12-03T01:34:24.952Z,26.50
2022-12-03T01:37:12.173Z,26.43
2022-12-03T01:39:59.125Z,29.07
2022-12-03T01:42:46.266Z,26.70
2022-12-03T01:45:33.955Z,25.90
2022-12-03T01:48:21.011Z,28.70
2022-12-03T01:51:08.167Z,25.83
2022-12-03T01:53:55.204Z,32.03
2022-12-03T01:56:42.370Z,23.97
2022-12-03T01:59:38.948Z,31.20
2022-12-03T02:02:28.806Z,28.63
2022-12-03T02:05:22.351Z,26.53
2022-12-03T02:08:32.234Z,26.23
2022-12-03T02:11:25.155Z,28.27
2022-12-03T02:14:21.597Z,24.20
2022-12-03T02:17:08.668Z,27.87
2022-12-03T02:19:56.382Z,27.60
2022-12-03T02:23:08.332Z,33.83
2022-12-03T02:25:55.388Z,27.23
2022-12-03T02:28:42.615Z,25.17
2022-12-03T02:31:30.014Z,27.33
2022-12-03T02:34:44.185Z,26.20
2022-12-03T02:37:35.108Z,27.67
2022-12-03T02:40:25.756Z,29.33
2022-12-03T02:43:15.043Z,29.40
2022-12-03T02:46:03.830Z,28.97
2022-12-03T02:48:50.853Z,29.97
2022-12-03T02:51:37.909Z,26.97
2022-12-03T02:54:25.355Z,27.37
2022-12-03T02:57:12.427Z,27.73
2022-12-03T02:59:59.663Z,29.73
2022-12-03T03:02:47.145Z,33.63
2022-12-03T03:05:36.913Z,29.03
2022-12-03T03:08:25.044Z,29.50
2022-12-03T03:11:12.451Z,25.23
2022-12-03T03:14:02.558Z,26.03
2022-12-03T03:16:56.147Z,26.63
2022-12-03T03:19:43.506Z,26.87
2022-12-03T03:22:35.487Z,25.60
2022-12-03T03:25:24.662Z,29.07
2022-12-03T03:28:12.391Z,27.70
2022-12-03T03:31:02.982Z,29.53
2022-12-03T03:33:50.642Z,31.47
2022-12-03T03:36:38.837Z,30.40
2022-12-03T03:39:26.363Z,31.50
2022-12-03T03:42:13.850Z,29.93
2022-12-03T03:45:00.883Z,32.13
2022-12-03T03:47:48.277Z,29.00
2022-12-03T03:50:36.773Z,28.27
2022-12-03T03:53:24.415Z,29.20
2022-12-03T03:56:12.034Z,31.43
2022-12-03T03:58:59.073Z,31.40
2022-12-03T04:01:46.520Z,29.10
2022-12-03T04:04:39.216Z,32.20
2022-12-03T04:07:28.654Z,27.13
2022-12-03T04:10:37.171Z,29.27
2022-12-03T04:13:24.894Z,30.50
2022-12-03T04:16:12.541Z,29.63
2022-12-03T04:18:59.742Z,30.17
2022-12-03T04:22:05.287Z,30.30
2022-12-03T04:25:12.198Z,32.30
2022-12-03T04:28:18.114Z,31.00
2022-12-03T04:31:25.390Z,30.40
2022-12-03T04:34:31.652Z,23.87
2022-12-03T04:37:19.609Z,27.67
2022-12-03T04:40:27.290Z,27.93
2022-12-03T04:43:14.234Z,26.87
2022-12-03T04:46:01.986Z,30.33
2022-12-03T04:48:48.962Z,26.00
2022-12-03T04:51:35.950Z,25.53
2022-12-03T04:54:23.048Z,26.43
2022-12-03T04:57:10.114Z,30.13
2022-12-03T04:59:57.033Z,29.60
2022-12-03T05:02:44.141Z,33.80
2022-12-03T05:05:31.098Z,28.40
2022-12-03T05:08:18.113Z,27.23
2022-12-03T05:11:05.140Z,30.13
2022-12-03T05:13:52.472Z,30.43
2022-12-03T05:16:40.214Z,32.03
2022-12-03T05:19:47.226Z,32.87
2022-12-03T05:22:34.266Z,31.10
2022-12-03T05:25:21.192Z,34.37
2022-12-03T05:28:08.242Z,25.97
2022-12-03T05:30:55.381Z,28.43
2022-12-03T05:33:44.578Z,28.83
2022-12-03T05:36:31.865Z,31.03
2022-12-03T05:39:18.812Z,32.07
2022-12-03T05:42:24.278Z,28.73
2022-12-03T05:45:11.198Z,29.87
2022-12-03T05:47:59.265Z,29.90
2022-12-03T05:50:46.884Z,34.67
2022-12-03T05:53:33.864Z,29.50
2022-12-03T05:56:20.807Z,29.77
2022-12-03T05:59:07.834Z,34.83
2022-12-03T06:01:55.377Z,29.97
2022-12-03T06:04:44.338Z,30.70
2022-12-03T06:07:31.290Z,30.63
2022-12-03T06:10:21.359Z,29.40
2022-12-03T06:13:08.264Z,25.80
2022-12-03T06:15:56.427Z,31.93
2022-12-03T06:18:43.406Z,35.90
2022-12-03T06:21:30.327Z,31.27
2022-12-03T06:24:18.335Z,37.77
2022-12-03T06:27:06.218Z,39.53
2022-12-03T06:29:53.156Z,35.03
2022-12-03T06:32:41.671Z,37.03
2022-12-03T06:35:30.069Z,31.83
2022-12-03T06:38:16.974Z,33.47
2022-12-03T06:41:05.555Z,28.70
2022-12-03T06:43:52.921Z,34.33
2022-12-03T06:46:40.573Z,29.30
2022-12-03T06:49:27.913Z,33.60
2022-12-03T06:52:15.425Z,28.80
2022-12-03T06:55:02.743Z,29.63
2022-12-03T06:57:50.088Z,31.20
2022-12-03T07:00:37.454Z,30.40
2022-12-03T07:03:24.937Z,31.23
2022-12-03T07:06:12.507Z,29.40
2022-12-03T07:08:59.826Z,31.77
2022-12-03T07:11:47.263Z,32.53
2022-12-03T07:14:34.708Z,30.10
2022-12-03T07:17:22.052Z,26.40
2022-12-03T07:20:10.443Z,31.20
2022-12-03T07:22:57.812Z,24.80
2022-12-03T07:25:45.166Z,29.90
2022-12-03T07:28:32.537Z,28.23
2022-12-03T07:31:19.970Z,29.30
2022-12-03T07:34:07.893Z,31.90
2022-12-03T07:36:55.331Z,29.07
2022-12-03T07:39:42.685Z,32.20
2022-12-03T07:42:30.004Z,31.93
2022-12-03T07:45:17.392Z,32.17
2022-12-03T07:48:04.842Z,27.53
2022-12-03T07:50:52.268Z,35.30
2022-12-03T07:53:39.640Z,30.13
2022-12-03T07:56:26.964Z,29.73
2022-12-03T07:59:14.838Z,26.27
2022-12-03T08:02:02.651Z,30.07
2022-12-03T08:04:50.068Z,30.40
2022-12-03T08:07:37.568Z,27.23
2022-12-03T08:10:26.561Z,34.27
2022-12-03T08:13:16.283Z,40.03
2022-12-03T08:16:12.218Z,31.83
2022-12-03T08:18:59.616Z,29.80
2022-12-03T08:21:46.934Z,29.97
2022-12-03T08:24:34.337Z,35.27
2022-12-03T08:27:21.726Z,30.03
2022-12-03T08:30:12.313Z,29.90
2022-12-03T08:32:59.909Z,32.30
2022-12-03T08:35:50.734Z,34.73
2022-12-03T08:38:38.079Z,32.90
2022-12-03T08:41:44.634Z,31.17
2022-12-03T08:44:38.661Z,28.60
2022-12-03T08:47:26.013Z,29.13
2022-12-03T08:50:52.118Z,29.90
2022-12-03T08:53:43.067Z,30.63
2022-12-03T08:56:31.304Z,33.17
2022-12-03T08:59:26.889Z,34.87
2022-12-03T09:02:19.531Z,29.47
2022-12-03T09:05:23.636Z,29.87
2022-12-03T09:08:11.084Z,29.47
2022-12-03T09:10:58.515Z,28.10
2022-12-03T09:13:45.895Z,30.20
2022-12-03T09:16:33.328Z,30.07
2022-12-03T09:19:20.660Z,29.37
2022-12-03T09:22:08.007Z,31.17
2022-12-03T09:24:55.537Z,28.33
2022-12-03T09:27:43.151Z,31.13
2022-12-03T09:30:30.602Z,25.47
2022-12-03T09:33:17.980Z,28.10
2022-12-03T09:36:06.366Z,28.57
2022-12-03T09:38:53.761Z,33.87
2022-12-03T09:41:41.195Z,29.73
2022-12-03T09:44:33.084Z,29.70
2022-12-03T09:47:20.802Z,33.80
2022-12-03T09:50:12.023Z,31.37
2022-12-03T09:53:00.978Z,31.63
2022-12-03T09:55:48.931Z,32.90
2022-12-03T09:58:36.533Z,33.17
2022-12-03T10:01:27.889Z,30.43
2022-12-03T10:04:17.658Z,31.63
2022-12-03T10:07:05.111Z,29.17
2022-12-03T10:09:52.939Z,34.07
2022-12-03T10:12:40.643Z,34.93
2022-12-03T10:15:28.039Z,32.07
2022-12-03T10:18:28.708Z,31.30
2022-12-03T10:21:24.252Z,31.23
2022-12-03T10:24:17.889Z,29.90
2022-12-03T10:27:24.194Z,28.63
2022-12-03T10:30:23.300Z,27.70
2022-12-03T10:33:18.843Z,33.73
2022-12-03T10:36:15.848Z,35.13
2022-12-03T10:39:14.331Z,30.63
2022-12-03T10:42:16.015Z,30.27
2022-12-03T10:45:23.332Z,29.67
2022-12-03T10:48:18.960Z,37.93
2022-12-03T10:51:07.494Z,29.77
2022-12-03T10:53:55.047Z,29.30
2022-12-03T10:56:42.408Z,25.87
2022-12-03T10:59:31.532Z,29.70
2022-12-03T11:02:23.374Z,24.67
2022-12-03T11:05:16.564Z,31.13
2022-12-03T11:08:04.556Z,28.30
2022-12-03T11:11:08.809Z,27.83
2022-12-03T11:14:00.500Z,28.17
2022-12-03T11:16:48.026Z,32.87
2022-12-03T11:19:46.007Z,27.70
2022-12-03T11:22:43.861Z,31.13
2022-12-03T11:25:36.968Z,29.10
2022-12-03T11:28:27.350Z,29.30
2022-12-03T11:31:33.678Z,28.73
2022-12-03T11:34:21.106Z,27.37
2022-12-03T11:37:11.662Z,28.93
2022-12-03T11:39:59.698Z,29.53
2022-12-03T11:42:48.303Z,34.33
2022-12-03T11:45:37.285Z,29.00
2022-12-03T11:48:24.642Z,29.37
2022-12-03T11:51:16.394Z,36.53
2022-12-03T11:54:03.814Z,36.23
2022-12-03T11:56:51.635Z,35.63
2022-12-03T11:59:57.028Z,36.63
2022-12-03T12:02:44.635Z,36.10
2022-12-03T12:05:33.212Z,30.57
2022-12-03T12:08:21.277Z,28.70
2022-12-03T12:11:27.250Z,32.00
2022-12-03T12:14:14.790Z,32.43
2022-12-03T12:17:03.583Z,27.97
2022-12-03T12:19:54.388Z,30.80
2022-12-03T12:22:42.007Z,32.03
2022-12-03T12:25:41.953Z,32.17
2022-12-03T12:28:29.319Z,31.90
2022-12-03T12:31:16.727Z,27.83
2022-12-03T12:34:05.958Z,31.13
2022-12-03T12:36:55.377Z,36.70
2022-12-03T12:39:42.861Z,28.10
2022-12-03T12:42:33.483Z,30.57
2022-12-03T12:45:22.505Z,33.50
2022-12-03T12:48:15.943Z,33.87
2022-12-03T12:51:10.565Z,30.67
2022-12-03T12:53:57.916Z,42.00
2022-12-03T12:56:46.410Z,26.83
2022-12-03T12:59:33.849Z,32.33
2022-12-03T13:02:36.538Z,27.33
2022-12-03T13:05:27.563Z,29.50
2022-12-03T13:08:21.639Z,33.80
2022-12-03T13:11:17.527Z,34.87
2022-12-03T13:14:21.688Z,31.17
2022-12-03T13:17:14.704Z,30.93
2022-12-03T13:20:07.711Z,27.93
2022-12-03T13:22:55.735Z,27.03
2022-12-03T13:26:06.360Z,22.80
2022-12-03T13:28:50.548Z,22.77
2022-12-03T13:31:43.408Z,23.43
2022-12-03T13:34:35.510Z,23.00
2022-12-03T13:37:25.884Z,24.47
2022-12-03T13:40:21.916Z,21.43
2022-12-03T13:43:16.558Z,20.07
2022-12-03T13:46:04.014Z,28.97
2022-12-03T13:48:51.403Z,22.07
2022-12-03T13:51:39.174Z,26.60
2022-12-03T13:54:28.316Z,24.80
2022-12-03T13:57:15.689Z,21.37
2022-12-03T14:00:03.293Z,20.57
2022-12-03T14:02:50.765Z,21.07
2022-12-03T14:05:38.176Z,21.83
2022-12-03T14:08:25.562Z,28.07
2022-12-03T14:11:33.223Z,26.33
2022-12-03T14:14:20.778Z,28.77
2022-12-03T14:17:10.139Z,24.23
2022-12-03T14:19:58.029Z,19.60
2022-12-03T14:22:45.353Z,19.73
2022-12-03T14:25:32.685Z,26.60
2022-12-03T14:28:20.051Z,23.37
2022-12-03T14:31:07.497Z,24.30
2022-12-03T14:33:54.884Z,20.90
2022-12-03T14:36:42.341Z,22.13
2022-12-03T14:39:29.775Z,25.20
2022-12-03T14:42:18.181Z,23.80
2022-12-03T14:45:06.699Z,21.67
2022-12-03T14:47:54.054Z,25.67
2022-12-03T14:50:41.400Z,21.33
2022-12-03T14:53:28.835Z,21.40
2022-12-03T14:56:16.272Z,23.40
2022-12-03T14:59:03.640Z,24.07
2022-12-03T15:01:51.634Z,22.33
2022-12-03T15:04:39.970Z,23.07
2022-12-03T15:07:27.385Z,18.50
2022-12-03T15:10:16.218Z,22.80
2022-12-03T15:13:03.590Z,20.40
2022-12-03T15:15:51.274Z,19.63
2022-12-03T15:18:38.652Z,25.53
2022-12-03T15:21:28.401Z,23.57
2022-12-03T15:24:15.758Z,23.27
2022-12-03T15:27:03.221Z,22.20
2022-12-03T15:29:50.696Z,22.83
2022-12-03T15:32:38.068Z,21.70
2022-12-03T15:35:25.449Z,25.57
2022-12-03T15:38:12.907Z,25.23
2022-12-03T15:41:20.360Z,23.73
2022-12-03T15:44:07.694Z,25.80
2022-12-03T15:46:55.061Z,25.67
2022-12-03T15:49:42.456Z,24.73
2022-12-03T15:52:29.792Z,21.43
2022-12-03T15:55:17.294Z,24.97
2022-12-03T15:58:04.726Z,24.27
2022-12-03T16:00:52.074Z,24.57
2022-12-03T16:03:39.841Z,27.83
2022-12-03T16:06:27.481Z,22.27
2022-12-03T16:09:14.966Z,28.83
2022-12-03T16:12:02.364Z,32.17
2022-12-03T16:14:49.837Z,25.83
2022-12-03T16:17:37.203Z,28.97
2022-12-03T16:20:24.543Z,27.63
2022-12-03T16:23:12.506Z,24.23
2022-12-03T16:25:59.894Z,27.47
2022-12-03T16:28:47.628Z,23.70
2022-12-03T16:31:35.609Z,24.90
2022-12-03T16:34:23.179Z,30.77
2022-12-03T16:37:11.396Z,31.97
2022-12-03T16:39:58.983Z,39.10
2022-12-03T16:42:46.319Z,28.50
2022-12-03T16:45:51.436Z,38.53
2022-12-03T16:48:39.057Z,32.37
2022-12-03T16:51:27.504Z,28.97
2022-12-03T16:54:14.873Z,26.50
2022-12-03T16:57:02.228Z,25.77
2022-12-03T16:59:49.568Z,24.77
2022-12-03T17:02:37.005Z,23.83
2022-12-03T17:05:24.573Z,23.50
2022-12-03T17:08:12.373Z,24.23
2022-12-03T17:10:59.896Z,25.97
2022-12-03T17:13:47.302Z,26.77
2022-12-03T17:16:34.732Z,25.47
2022-12-03T17:19:22.202Z,29.87
2022-12-03T17:22:09.596Z,24.37
2022-12-03T17:24:56.965Z,24.13
2022-12-03T17:27:45.563Z,23.07
2022-12-03T17:30:33.182Z,25.60
2022-12-03T17:33:20.537Z,28.93
2022-12-03T17:36:08.307Z,26.40
2022-12-03T17:38:55.625Z,29.80
2022-12-03T17:41:43.013Z,26.93
2022-12-03T17:44:30.624Z,31.30
2022-12-03T17:47:18.073Z,29.30
2022-12-03T17:50:05.790Z,30.13
2022-12-03T17:52:53.241Z,32.67
2022-12-03T17:55:44.528Z,39.97
2022-12-03T17:58:32.537Z,36.30
2022-12-03T18:01:19.920Z,34.30
2022-12-03T18:04:07.334Z,36.63
2022-12-03T18:07:00.524Z,32.33
2022-12-03T18:09:49.426Z,31.70
2022-12-03T18:12:37.088Z,38.67
2022-12-03T18:15:24.474Z,30.97
2022-12-03T18:18:12.244Z,29.90
2022-12-03T18:21:04.250Z,32.60
2022-12-03T18:23:51.750Z,30.90
2022-12-03T18:26:39.173Z,30.10
2022-12-03T18:29:26.580Z,35.40
2022-12-03T18:32:27.706Z,34.70
2022-12-03T18:35:16.098Z,33.90
2022-12-03T18:38:03.502Z,39.87
2022-12-03T18:40:51.565Z,39.50
2022-12-03T18:43:42.511Z,34.47
2022-12-03T18:46:53.480Z,42.57
2022-12-03T18:49:37.274Z,42.37
2022-12-03T18:52:25.291Z,45.10
2022-12-03T18:55:19.682Z,42.93
2022-12-03T18:58:07.138Z,45.77
2022-12-03T19:00:55.150Z,46.47
2022-12-03T19:03:42.672Z,51.05
2022-12-03T19:06:30.459Z,51.50
2022-12-03T19:09:17.950Z,45.03
2022-12-03T19:12:09.824Z,58.10
2022-12-03T19:15:00.307Z,52.77
2022-12-03T19:17:51.220Z,51.10
2022-12-03T19:20:40.685Z,49.67
2022-12-03T19:23:28.019Z,48.70
2022-12-03T19:26:15.661Z,45.10
2022-12-03T19:29:03.341Z,47.90
2022-12-03T19:31:53.971Z,47.60
2022-12-03T19:34:41.354Z,55.23
2022-12-03T19:37:28.735Z,45.47
2022-12-03T19:40:17.196Z,48.53
2022-12-03T19:43:04.577Z,50.67
2022-12-03T19:45:52.084Z,49.63
2022-12-03T19:48:40.593Z,48.40
2022-12-03T19:51:36.031Z,48.97
2022-12-03T19:54:24.274Z,47.97
2022-12-03T19:57:11.650Z,48.83
2022-12-03T19:59:59.059Z,46.93
2022-12-03T20:02:48.905Z,47.83
2022-12-03T20:05:37.810Z,48.33
2022-12-03T20:08:25.207Z,55.10
2022-12-03T20:11:12.538Z,50.67
2022-12-03T20:14:01.816Z,53.93
2022-12-03T20:16:49.312Z,47.87
2022-12-03T20:19:36.783Z,44.90
2022-12-03T20:22:24.165Z,43.87
2022-12-03T20:25:11.875Z,51.70
2022-12-03T20:27:59.273Z,46.73
2022-12-03T20:30:47.928Z,46.43
2022-12-03T20:33:35.322Z,43.93
2022-12-03T20:36:22.854Z,48.63
2022-12-03T20:39:10.909Z,43.10
2022-12-03T20:41:58.389Z,43.83
2022-12-03T20:44:45.768Z,45.60
2022-12-03T20:47:33.144Z,49.50
2022-12-03T20:50:20.548Z,47.80
2022-12-03T20:53:24.401Z,45.23
2022-12-03T20:56:18.237Z,48.73
2022-12-03T20:59:06.729Z,48.33
2022-12-03T21:01:54.155Z,42.03
2022-12-03T21:04:41.703Z,44.23
2022-12-03T21:07:29.206Z,53.47
2022-12-03T21:10:36.028Z,46.03
2022-12-03T21:13:26.653Z,44.07
2022-12-03T21:16:29.654Z,43.77
2022-12-03T21:19:27.320Z,49.97
2022-12-03T21:22:14.900Z,45.83
2022-12-03T21:25:03.153Z,47.77
2022-12-03T21:27:50.571Z,53.73
2022-12-03T21:30:39.789Z,45.97
2022-12-03T21:33:27.179Z,47.87
2022-12-03T21:36:16.135Z,45.73
2022-12-03T21:39:04.154Z,46.50
2022-12-03T21:42:18.775Z,47.53
2022-12-03T21:44:58.979Z,43.17
2022-12-03T21:47:49.442Z,43.07
2022-12-03T21:50:36.965Z,46.70
2022-12-03T21:53:24.460Z,49.00
2022-12-03T21:56:16.175Z,49.40
2022-12-03T21:59:03.549Z,54.07
2022-12-03T22:01:50.983Z,46.50
2022-12-03T22:04:39.942Z,49.10
2022-12-03T22:07:27.423Z,66.27
2022-12-03T22:10:15.169Z,58.80
2022-12-03T22:13:03.286Z,46.20
2022-12-03T22:15:50.666Z,46.93
2022-12-03T22:18:39.054Z,47.93
2022-12-03T22:21:26.448Z,46.67
2022-12-03T22:24:13.804Z,49.67
2022-12-03T22:27:01.985Z,43.57
2022-12-03T22:29:49.329Z,47.03
2022-12-03T22:32:36.725Z,42.83
2022-12-03T22:35:24.106Z,47.73
2022-12-03T22:38:11.876Z,48.87
2022-12-03T22:40:59.628Z,55.53
2022-12-03T22:43:47.504Z,52.97
2022-12-03T22:46:34.956Z,46.00
2022-12-03T22:49:22.394Z,40.60
2022-12-03T22:52:09.878Z,45.03
2022-12-03T22:54:57.341Z,47.73
2022-12-03T22:57:44.694Z,49.73
2022-12-03T23:00:33.680Z,44.03
2022-12-03T23:03:21.184Z,46.17
2022-12-03T23:06:12.605Z,48.67
2022-12-03T23:09:00.187Z,51.03
2022-12-03T23:11:47.666Z,42.43
2022-12-03T23:14:35.066Z,45.70
2022-12-03T23:17:22.515Z,43.93
2022-12-03T23:20:10.177Z,43.87
2022-12-03T23:22:57.546Z,41.87
2022-12-03T23:25:44.918Z,48.07
2022-12-03T23:28:33.510Z,42.53
2022-12-03T23:31:29.413Z,46.13
2022-12-03T23:34:17.176Z,43.10
2022-12-03T23:37:04.885Z,43.07
2022-12-03T23:39:53.037Z,48.57
2022-12-03T23:42:40.626Z,44.83
2022-12-03T23:45:27.959Z,43.20
2022-12-03T23:48:15.339Z,43.00
2022-12-03T23:51:13.935Z,40.77
2022-12-03T23:54:01.728Z,47.27
2022-12-03T23:56:49.107Z,46.13
2022-12-03T23:59:36.556Z,43.87
